Time;durP1;ratioP1;P1;durP2;ratioP2;P2;SDS_P1;SDS_P2;PMS_P1;PMS_P2;Temp;Humidity;BMP_temperature;BMP_pressure;BME280_temperature;BME280_humidity;BME280_pressure;Samples;Min_cycle;Max_cycle;Signal;HPM_P1;HPM_P2
2022/03/01 00:00:18;;;;;;;14.95;6.50;;;0.10;94.60;;;-0.86;61.85;98408.25;5009097;28;20029;-83
2022/03/01 00:02:44;;;;;;;11.98;6.07;;;0.10;95.00;;;-1.07;62.19;98387.88;4994196;28;20021;-83
2022/03/01 00:05:10;;;;;;;11.70;6.28;;;0.00;95.20;;;-1.10;62.59;98387.78;4990283;28;20107;-83
2022/03/01 00:07:36;;;;;;;12.35;5.88;;;0.00;95.20;;;-1.06;62.51;98400.00;4989416;28;20072;-83
2022/03/01 00:10:02;;;;;;;13.25;6.55;;;-0.10;95.20;;;-1.26;62.99;98373.56;5008735;28;20029;-83
2022/03/01 00:12:29;;;;;;;14.93;6.78;;;-0.10;95.30;;;-1.16;64.38;98414.41;4990136;28;20033;-83
2022/03/01 00:14:54;;;;;;;14.32;6.47;;;-0.20;95.80;;;-1.20;65.09;98407.41;5010294;28;20080;-83
2022/03/01 00:17:20;;;;;;;13.82;6.68;;;-0.20;96.00;;;-1.37;64.90;98383.66;4996202;28;20255;-83
2022/03/01 00:19:46;;;;;;;9.52;5.78;;;-0.20;96.10;;;-1.23;65.56;98411.63;5004321;28;20022;-84
2022/03/01 00:22:11;;;;;;;15.40;6.88;;;-0.30;96.30;;;-1.23;64.51;98421.97;4992420;28;20033;-83
2022/03/01 00:24:37;;;;;;;18.35;6.90;;;-0.30;96.00;;;-1.28;65.01;98424.44;4996925;28;20455;-83
2022/03/01 00:27:03;;;;;;;14.52;7.15;;;-0.30;96.20;;;-1.28;64.96;98408.03;5010033;28;20033;-83
2022/03/01 00:29:29;;;;;;;17.13;7.25;;;-0.30;96.20;;;-1.38;65.88;98401.75;4976712;28;20082;-83
2022/03/01 00:31:55;;;;;;;14.15;7.05;;;-0.30;96.50;;;-1.34;65.96;98408.75;4977432;28;20041;-83
2022/03/01 00:34:20;;;;;;;13.50;7.30;;;-0.30;96.40;;;-1.44;65.96;98394.69;4993394;28;20030;-83
2022/03/01 00:36:46;;;;;;;14.50;7.13;;;-0.30;96.50;;;-1.46;66.52;98396.34;5030998;28;20320;-84
2022/03/01 00:39:12;;;;;;;13.65;7.38;;;-0.40;96.80;;;-1.70;66.69;98359.50;4996935;28;20033;-83
2022/03/01 00:41:38;;;;;;;19.02;8.07;;;-0.40;96.90;;;-1.41;65.71;98394.75;5002615;28;20038;-83
2022/03/01 00:44:04;;;;;;;16.45;7.60;;;-0.40;96.70;;;-1.49;65.80;98377.28;5014816;28;20067;-83
2022/03/01 00:46:30;;;;;;;16.05;7.95;;;-0.30;96.60;;;-1.42;65.98;98390.44;4998020;28;20037;-83
2022/03/01 00:48:58;;;;;;;20.33;7.50;;;-0.30;96.70;;;-1.22;66.20;98419.44;4985007;28;20029;-84
2022/03/01 00:51:25;;;;;;;15.52;7.32;;;-0.30;96.90;;;-1.55;67.00;98378.00;4998717;28;20017;-83
2022/03/01 00:53:50;;;;;;;17.92;7.32;;;-0.40;96.90;;;-1.63;67.70;98364.00;4999189;28;20452;-83
2022/03/01 00:56:17;;;;;;;13.07;7.10;;;-0.40;97.30;;;-1.71;67.75;98352.56;5014371;28;20074;-83
2022/03/01 00:58:42;;;;;;;16.55;7.75;;;-0.40;97.30;;;-1.59;67.75;98374.47;4998366;28;20034;-84
2022/03/01 01:01:08;;;;;;;15.95;7.40;;;-0.50;97.40;;;-1.45;68.29;98398.13;4984246;28;20034;-84
2022/03/01 01:03:34;;;;;;;15.50;7.22;;;-0.50;97.60;;;-1.55;68.82;98386.63;5013938;28;20535;-84
2022/03/01 01:06:00;;;;;;;17.65;7.65;;;-0.50;97.70;;;-1.73;69.76;98363.72;4999688;28;20030;-83
2022/03/01 01:08:26;;;;;;;16.23;7.13;;;-0.60;98.00;;;-1.73;70.41;98374.06;5017195;28;20072;-83
2022/03/01 01:10:51;;;;;;;15.02;7.18;;;-0.60;98.30;;;-1.85;70.20;98352.19;5015325;28;20041;-84
2022/03/01 01:13:17;;;;;;;14.98;7.20;;;-0.70;98.30;;;-1.95;71.26;98348.47;4999938;28;20573;-83
2022/03/01 01:15:46;;;;;;;15.30;7.45;;;-0.70;98.70;;;-1.86;72.00;98378.88;4983909;28;20033;-83
2022/03/01 01:18:12;;;;;;;15.48;7.03;;;-0.80;99.00;;;-1.92;72.42;98372.72;4997580;28;20509;-83
2022/03/01 01:20:38;;;;;;;14.40;7.25;;;-0.90;99.20;;;-1.98;73.24;98363.91;5018688;28;20650;-83
2022/03/01 01:23:04;;;;;;;16.58;7.35;;;-0.90;99.50;;;-2.00;73.78;98376.78;5013587;28;20041;-83
2022/03/01 01:25:30;;;;;;;15.77;7.30;;;-1.00;99.70;;;-2.15;74.54;98360.84;5016422;28;20417;-83
2022/03/01 01:27:58;;;;;;;11.70;6.70;;;-1.10;99.90;;;-2.01;73.90;98381.91;5000442;28;20518;-85
2022/03/01 01:30:28;;;;;;;13.15;7.10;;;-1.20;99.90;;;-2.22;74.43;98351.16;5001627;28;20087;-83
2022/03/01 01:32:54;;;;;;;14.25;7.38;;;-1.20;99.90;;;-2.40;74.48;98330.84;4988860;28;20192;-83
2022/03/01 01:35:28;;;;;;;15.27;7.95;;;-1.20;99.90;;;-2.50;75.22;98327.97;5002263;28;20041;-84
2022/03/01 01:37:56;;;;;;;13.43;6.72;;;-1.20;99.90;;;-2.34;74.85;98346.50;5002216;28;20041;-83
2022/03/01 01:40:27;;;;;;;14.30;7.18;;;-1.30;99.90;;;-2.56;75.23;98314.88;4986429;28;20033;-83
2022/03/01 01:42:54;;;;;;;15.00;7.30;;;-1.20;99.90;;;-2.28;75.98;98363.88;4998418;28;20029;-83
2022/03/01 01:45:22;;;;;;;12.40;7.15;;;-1.20;99.90;;;-2.46;76.16;98330.63;5002123;28;20065;-83
2022/03/01 01:47:50;;;;;;;16.38;7.72;;;-1.30;99.90;;;-2.40;76.88;98342.03;4987690;28;20057;-84
2022/03/01 01:50:16;;;;;;;15.73;7.22;;;-1.30;99.90;;;-2.48;77.70;98340.94;4998962;28;20059;-83
2022/03/01 01:52:47;;;;;;;15.70;7.50;;;-1.40;99.90;;;-2.45;78.54;98351.34;5002034;28;20075;-83
2022/03/01 01:55:15;;;;;;;14.55;7.25;;;-1.40;99.90;;;-2.50;78.75;98350.34;5015362;28;20034;-83
2022/03/01 01:57:40;;;;;;;13.23;7.50;;;-1.40;99.90;;;-2.66;79.44;98327.47;5020110;28;20021;-83
2022/03/01 02:00:08;;;;;;;14.05;7.55;;;-1.50;99.90;;;-2.46;80.11;98366.81;5015238;28;20033;-84
2022/03/01 02:02:33;;;;;;;15.05;7.32;;;-1.50;99.90;;;-2.70;80.12;98342.00;4997241;28;20042;-83
2022/03/01 02:05:00;;;;;;;16.92;7.97;;;-1.50;99.90;;;-2.74;80.50;98335.00;4998248;28;20037;-83
2022/03/01 02:07:26;;;;;;;13.20;6.95;;;-1.50;99.90;;;-2.72;80.85;98347.09;4997867;28;20339;-83
2022/03/01 02:09:51;;;;;;;14.65;7.18;;;-1.60;99.90;;;-2.63;81.10;98359.44;5014485;28;20073;-83
2022/03/01 02:12:17;;;;;;;16.52;7.50;;;-1.60;99.90;;;-2.66;81.32;98351.56;5001880;28;20038;-84
2022/03/01 02:14:44;;;;;;;14.68;7.50;;;-1.60;99.90;;;-2.66;81.14;98346.41;4979807;28;20036;-84
2022/03/01 02:17:10;;;;;;;15.63;7.32;;;-1.50;99.90;;;-2.69;80.66;98344.63;4994573;28;20042;-83
2022/03/01 02:19:37;;;;;;;15.85;7.82;;;-1.50;99.90;;;-2.56;80.88;98356.19;4977383;28;20059;-83
2022/03/01 02:22:08;;;;;;;14.57;7.25;;;-1.50;99.90;;;-2.77;80.91;98329.72;5012820;28;20479;-83
2022/03/01 02:24:34;;;;;;;14.48;7.28;;;-1.50;99.90;;;-2.67;80.90;98334.34;5001560;28;20029;-83
2022/03/01 02:27:04;;;;;;;14.30;6.97;;;-1.60;99.90;;;-2.62;81.20;98349.97;4997208;28;20044;-83
2022/03/01 02:29:31;;;;;;;16.75;7.10;;;-1.60;99.90;;;-2.62;81.10;98345.69;4997462;28;20033;-83
2022/03/01 02:32:04;;;;;;;16.15;8.05;;;-1.60;99.90;;;-2.75;81.22;98344.41;5016657;28;20037;-83
2022/03/01 02:34:30;;;;;;;17.40;7.47;;;-1.60;99.90;;;-2.80;80.62;98325.34;4979940;28;20065;-83
2022/03/01 02:36:55;;;;;;;15.73;7.40;;;-1.50;99.90;;;-2.75;80.43;98330.66;4997634;28;20133;-84
2022/03/01 02:39:21;;;;;;;15.02;7.57;;;-1.50;99.90;;;-2.76;81.10;98321.16;4994694;28;20069;-83
2022/03/01 02:41:47;;;;;;;15.52;7.45;;;-1.60;99.90;;;-2.67;81.28;98349.84;5010794;28;20026;-83
2022/03/01 02:44:14;;;;;;;14.68;8.00;;;-1.60;99.90;;;-2.68;81.72;98342.91;4997232;28;20045;-83
2022/03/01 02:46:40;;;;;;;15.48;7.93;;;-1.60;99.90;;;-2.88;81.63;98321.66;5013607;28;20033;-83
2022/03/01 02:49:08;;;;;;;18.70;8.13;;;-1.70;99.90;;;-2.73;82.03;98354.81;5008451;28;20045;-84
2022/03/01 02:51:34;;;;;;;15.43;7.32;;;-1.70;99.90;;;-2.77;82.12;98343.50;4994613;28;20025;-83
2022/03/01 02:54:01;;;;;;;15.40;6.97;;;-1.70;99.90;;;-2.81;81.92;98340.81;4995648;28;20419;-83
2022/03/01 02:56:26;;;;;;;14.32;7.10;;;-1.70;99.90;;;-2.84;82.36;98338.13;4991185;28;20056;-84
2022/03/01 02:58:55;;;;;;;19.35;7.55;;;-1.80;99.90;;;-2.89;83.17;98327.63;4981442;28;20034;-84
2022/03/01 03:01:23;;;;;;;14.48;7.60;;;-1.80;99.90;;;-3.06;83.70;98298.72;4998425;28;20073;-83
2022/03/01 03:03:49;;;;;;;16.75;7.18;;;-1.90;99.90;;;-2.95;83.67;98335.19;5031511;28;20056;-85
2022/03/01 03:06:16;;;;;;;12.57;7.05;;;-1.90;99.90;;;-2.88;83.98;98342.31;5012540;28;20038;-83
2022/03/01 03:08:42;;;;;;;14.07;7.22;;;-1.90;99.90;;;-3.01;84.21;98319.53;4997779;28;20442;-83
2022/03/01 03:11:08;;;;;;;15.10;7.22;;;-1.90;99.90;;;-3.15;83.56;98285.53;5000272;28;20037;-83
2022/03/01 03:13:34;;;;;;;14.38;6.90;;;-1.90;99.90;;;-3.13;83.24;98294.19;5001674;28;20566;-83
2022/03/01 03:15:59;;;;;;;15.30;7.53;;;-1.90;99.90;;;-3.18;83.18;98291.47;5017092;28;20046;-83
2022/03/01 03:18:25;;;;;;;13.95;7.53;;;-1.90;99.90;;;-3.03;83.14;98316.91;5000484;28;20037;-83
2022/03/01 03:20:51;;;;;;;14.57;6.85;;;-1.90;99.90;;;-2.89;83.13;98336.28;5012364;28;20411;-84
2022/03/01 03:23:17;;;;;;;16.17;8.00;;;-1.90;99.90;;;-2.94;83.46;98335.25;5017439;28;20048;-83
2022/03/01 03:25:42;;;;;;;15.68;7.75;;;-1.90;99.90;;;-3.00;83.67;98332.47;4998021;28;20052;-83
2022/03/01 03:28:08;;;;;;;16.50;7.75;;;-1.80;99.90;;;-3.20;83.71;98300.88;5013991;28;20069;-84
2022/03/01 03:30:34;;;;;;;12.82;7.20;;;-1.90;99.90;;;-3.21;83.87;98304.28;5017173;28;20352;-83
2022/03/01 03:32:59;;;;;;;14.65;7.30;;;-1.90;99.90;;;-3.27;84.27;98297.22;5014461;28;20025;-84
2022/03/01 03:35:25;;;;;;;15.52;7.55;;;-2.00;99.90;;;-3.07;83.84;98338.25;5015728;28;20120;-83
2022/03/01 03:37:51;;;;;;;14.68;7.47;;;-1.90;99.90;;;-3.03;84.03;98350.44;4996628;28;20487;-84
2022/03/01 03:40:17;;;;;;;15.38;6.80;;;-2.00;99.90;;;-3.22;84.21;98320.59;4985138;28;20029;-83
2022/03/01 03:42:44;;;;;;;15.18;7.65;;;-2.00;99.90;;;-3.07;84.51;98358.91;5006393;28;20048;-83
2022/03/01 03:45:11;;;;;;;16.65;7.57;;;-2.00;99.90;;;-3.27;84.78;98333.34;4995401;28;20038;-83
2022/03/01 03:47:37;;;;;;;13.35;7.25;;;-2.10;99.90;;;-3.14;84.85;98346.63;4994690;28;20048;-83
2022/03/01 03:50:04;;;;;;;13.10;7.00;;;-2.10;99.90;;;-3.61;84.16;98266.00;5013963;28;20037;-83
2022/03/01 03:52:30;;;;;;;15.57;7.15;;;-2.10;99.90;;;-3.12;84.05;98353.59;4995662;28;20490;-82
2022/03/01 03:54:56;;;;;;;13.07;7.35;;;-2.10;99.90;;;-3.25;83.50;98335.97;4994411;28;20038;-83
2022/03/01 03:57:21;;;;;;;16.15;7.30;;;-2.10;99.90;;;-3.39;83.56;98308.84;5011527;28;20187;-84
2022/03/01 03:59:47;;;;;;;14.10;7.35;;;-2.10;99.90;;;-3.48;83.62;98301.69;5012158;28;20033;-83
2022/03/01 04:02:13;;;;;;;14.93;7.00;;;-2.10;99.90;;;-3.34;83.24;98315.03;4999115;28;20037;-83
2022/03/01 04:04:38;;;;;;;15.88;7.50;;;-2.10;99.90;;;-3.20;83.50;98333.53;4999532;28;20041;-83
2022/03/01 04:07:05;;;;;;;14.35;7.35;;;-2.20;99.90;;;-3.30;83.71;98316.91;5009819;28;20067;-83
2022/03/01 04:09:31;;;;;;;17.60;7.43;;;-2.20;99.90;;;-3.27;84.36;98335.03;4998595;28;20025;-84
2022/03/01 04:11:57;;;;;;;16.50;7.55;;;-2.30;99.90;;;-3.39;85.00;98314.91;4993439;28;20108;-82
2022/03/01 04:14:23;;;;;;;14.65;7.25;;;-2.20;99.90;;;-3.75;85.23;98266.44;4977226;28;20124;-83
2022/03/01 04:16:48;;;;;;;17.45;8.30;;;-2.30;99.90;;;-3.52;84.73;98302.41;4992829;28;20059;-84
2022/03/01 04:19:17;;;;;;;17.23;7.90;;;-2.30;99.90;;;-3.93;84.43;98258.97;4995099;28;20029;-83
2022/03/01 04:21:43;;;;;;;14.77;7.20;;;-2.30;99.90;;;-3.46;84.45;98331.00;4995489;28;20033;-83
2022/03/01 04:24:08;;;;;;;18.08;6.55;;;-2.30;99.90;;;-3.56;84.41;98306.59;5013546;28;20474;-83
2022/03/01 04:26:34;;;;;;;16.15;6.95;;;-2.30;99.90;;;-3.49;84.84;98316.28;5013446;28;20280;-83
2022/03/01 04:29:00;;;;;;;15.38;7.60;;;-2.30;99.90;;;-3.44;84.30;98329.34;5015517;28;20534;-83
2022/03/01 04:31:26;;;;;;;15.20;7.22;;;-2.30;99.90;;;-3.50;84.63;98318.78;5014223;28;20045;-83
2022/03/01 04:33:54;;;;;;;17.48;7.05;;;-2.40;99.90;;;-3.59;84.78;98301.31;4996595;28;20025;-83
2022/03/01 04:36:19;;;;;;;13.60;6.85;;;-2.40;99.90;;;-3.48;85.45;98314.59;4994712;28;20037;-83
2022/03/01 04:38:47;;;;;;;15.75;7.57;;;-2.40;99.90;;;-3.67;85.29;98284.72;4998810;28;20048;-83
2022/03/01 04:41:13;;;;;;;13.57;7.07;;;-2.40;99.90;;;-3.46;85.12;98320.69;5011470;28;20034;-84
2022/03/01 04:43:38;;;;;;;14.75;7.05;;;-2.40;99.90;;;-3.66;85.50;98289.94;5016159;28;20033;-83
2022/03/01 04:46:05;;;;;;;14.55;7.22;;;-2.40;99.90;;;-3.48;85.60;98319.75;4980893;28;20316;-83
2022/03/01 04:48:31;;;;;;;15.20;7.25;;;-2.40;99.90;;;-3.58;85.49;98291.91;4979757;28;20541;-83
2022/03/01 04:50:57;;;;;;;15.88;7.20;;;-2.40;99.90;;;-3.68;85.48;98304.50;5014244;28;20030;-83
2022/03/01 04:53:23;;;;;;;13.50;6.90;;;-2.40;99.90;;;-3.48;85.72;98312.00;4995422;28;20336;-83
2022/03/01 04:55:49;;;;;;;13.85;6.90;;;-2.50;99.90;;;-3.49;85.67;98324.00;4997714;28;20029;-83
2022/03/01 04:58:15;;;;;;;12.63;6.50;;;-2.50;99.90;;;-3.52;85.99;98316.16;4978511;28;20104;-83
2022/03/01 05:00:41;;;;;;;13.48;7.53;;;-2.50;99.90;;;-3.80;86.08;98270.56;4981418;28;20503;-84
2022/03/01 05:03:07;;;;;;;12.98;6.82;;;-2.50;99.90;;;-3.79;86.10;98268.84;5010690;28;20113;-82
2022/03/01 05:05:32;;;;;;;18.02;7.38;;;-2.50;99.90;;;-3.63;86.27;98312.34;5012197;28;20069;-83
2022/03/01 05:07:58;;;;;;;14.75;6.85;;;-2.60;99.90;;;-3.70;86.04;98300.94;4997781;28;20380;-83
2022/03/01 05:10:24;;;;;;;13.27;7.15;;;-2.60;99.90;;;-3.68;86.29;98291.59;5014184;28;20040;-83
2022/03/01 05:13:01;;;;;;;11.40;6.38;;;-2.60;99.90;;;-3.67;86.43;98295.03;4996826;28;20030;-84
2022/03/01 05:15:28;;;;;;;20.13;7.20;;;-2.60;99.90;;;-3.72;86.22;98283.69;5016445;28;20048;-82
2022/03/01 05:17:56;;;;;;;15.27;6.70;;;-2.60;99.90;;;-3.68;86.42;98301.91;5014380;28;20076;-84
2022/03/01 05:20:22;;;;;;;15.15;7.47;;;-2.60;99.90;;;-3.93;86.66;98266.69;4993321;28;20042;-83
2022/03/01 05:22:48;;;;;;;16.52;7.00;;;-2.60;99.90;;;-3.72;86.69;98301.75;5017317;28;20021;-83
2022/03/01 05:25:17;;;;;;;18.15;7.55;;;-2.60;99.90;;;-3.73;85.80;98295.72;5022332;28;20033;-84
2022/03/01 05:27:45;;;;;;;15.80;7.68;;;-2.70;99.90;;;-3.97;86.17;98264.81;5018969;28;20026;-83
2022/03/01 05:30:14;;;;;;;12.23;6.72;;;-2.70;99.90;;;-3.87;86.44;98272.03;5020578;28;20033;-83
2022/03/01 05:32:44;;;;;;;14.80;7.82;;;-2.70;99.90;;;-3.76;86.91;98302.47;5002559;28;22610;-83
2022/03/01 05:35:13;;;;;;;19.70;7.72;;;-2.80;99.90;;;-3.74;86.77;98308.56;5002188;28;20038;-83
2022/03/01 05:37:42;;;;;;;13.52;7.32;;;-2.80;99.90;;;-3.98;87.14;98270.81;5020671;28;20026;-83
2022/03/01 05:40:09;;;;;;;16.65;7.78;;;-2.80;99.90;;;-4.10;87.58;98255.78;4985160;28;20030;-83
2022/03/01 05:42:36;;;;;;;14.75;7.47;;;-2.80;99.90;;;-4.34;88.17;98208.56;5001670;28;20021;-83
2022/03/01 05:45:02;;;;;;;15.68;7.30;;;-2.80;99.90;;;-4.08;88.40;98261.00;4992605;28;20116;-84
2022/03/01 05:47:28;;;;;;;14.57;7.55;;;-2.80;99.90;;;-3.89;88.40;98308.91;5021999;28;20033;-83
2022/03/01 05:49:55;;;;;;;13.68;6.82;;;-2.80;99.90;;;-3.97;87.96;98288.00;5001936;28;20096;-83
2022/03/01 05:52:21;;;;;;;16.52;8.18;;;-2.80;99.90;;;-3.85;88.12;98314.22;5000940;28;20116;-84
2022/03/01 05:54:46;;;;;;;16.17;7.35;;;-2.80;99.90;;;-3.98;88.39;98290.53;5000371;28;20093;-81
2022/03/01 05:57:12;;;;;;;16.30;8.30;;;-2.80;99.90;;;-4.12;88.88;98280.63;5002556;28;20192;-83
2022/03/01 05:59:38;;;;;;;14.93;8.05;;;-2.90;99.90;;;-3.83;87.79;98322.00;5021609;28;20045;-82
2022/03/01 06:02:04;;;;;;;16.02;8.00;;;-2.80;99.90;;;-3.98;87.98;98306.88;4990312;28;20480;-83
2022/03/01 06:04:29;;;;;;;15.35;7.47;;;-2.90;99.90;;;-4.01;87.52;98299.03;5001569;28;20068;-83
2022/03/01 06:06:55;;;;;;;16.83;7.90;;;-2.90;99.90;;;-4.05;87.15;98298.06;4987091;28;20038;-83
2022/03/01 06:09:21;;;;;;;16.67;7.60;;;-2.90;99.90;;;-4.11;87.19;98291.81;5002312;28;20050;-83
2022/03/01 06:11:47;;;;;;;13.68;7.70;;;-2.90;99.90;;;-3.91;87.32;98326.91;5002802;28;20037;-83
2022/03/01 06:14:13;;;;;;;17.88;7.22;;;-2.90;99.90;;;-3.86;87.78;98332.19;4996538;28;20119;-84
2022/03/01 06:16:38;;;;;;;16.23;7.55;;;-2.90;99.90;;;-3.99;87.65;98312.84;5015378;28;20031;-83
2022/03/01 06:19:05;;;;;;;12.68;7.25;;;-2.90;99.90;;;-3.88;87.74;98329.56;5014777;28;20053;-84
2022/03/01 06:21:31;;;;;;;14.05;7.75;;;-2.80;99.90;;;-3.89;88.04;98327.81;4992466;28;20168;-83
2022/03/01 06:23:57;;;;;;;15.30;7.50;;;-2.80;99.90;;;-3.77;87.77;98345.41;4981036;28;20036;-83
2022/03/01 06:26:23;;;;;;;14.52;7.45;;;-2.80;99.90;;;-3.95;87.65;98317.28;5000572;28;20430;-83
2022/03/01 06:28:52;;;;;;;14.55;7.32;;;-2.80;99.90;;;-3.76;87.54;98351.44;5011220;28;20517;-83
2022/03/01 06:31:18;;;;;;;15.43;7.20;;;-2.70;99.90;;;-3.95;87.43;98313.84;5018383;28;20045;-83
2022/03/01 06:33:44;;;;;;;16.50;7.65;;;-2.70;99.90;;;-4.01;86.78;98296.47;5001975;28;20054;-84
2022/03/01 06:36:10;;;;;;;18.25;7.38;;;-2.70;99.90;;;-3.68;86.49;98345.75;5002666;28;20092;-84
2022/03/01 06:38:36;;;;;;;16.15;7.43;;;-2.70;99.90;;;-3.73;86.35;98341.22;5018465;28;20046;-83
2022/03/01 06:41:02;;;;;;;16.50;7.63;;;-2.60;99.90;;;-3.61;86.44;98346.81;5017304;28;20053;-83
2022/03/01 06:43:28;;;;;;;16.88;7.40;;;-2.60;99.90;;;-3.68;85.97;98325.13;5004459;28;20479;-84
2022/03/01 06:45:53;;;;;;;15.10;7.80;;;-2.50;99.90;;;-3.57;85.72;98346.09;5001292;28;20029;-83
2022/03/01 06:48:20;;;;;;;14.07;7.40;;;-2.50;99.90;;;-3.51;85.43;98359.19;5005212;28;20407;-84
2022/03/01 06:50:45;;;;;;;17.35;8.25;;;-2.40;99.90;;;-3.54;85.18;98345.31;5017501;28;20036;-83
2022/03/01 06:53:13;;;;;;;14.63;7.18;;;-2.40;99.90;;;-3.30;84.88;98382.25;5001859;28;20036;-83
2022/03/01 06:55:41;;;;;;;16.10;8.07;;;-2.30;99.90;;;-3.37;84.85;98357.09;5018781;28;20034;-84
2022/03/01 06:58:06;;;;;;;19.85;7.75;;;-2.30;99.90;;;-3.28;84.92;98357.38;4992735;28;20053;-83
2022/03/01 07:00:32;;;;;;;19.17;7.70;;;-2.20;99.90;;;-3.31;84.11;98346.97;5020308;28;20319;-83
2022/03/01 07:02:58;;;;;;;17.60;8.40;;;-2.10;99.90;;;-3.11;83.31;98370.81;4999967;28;20029;-83
2022/03/01 07:05:24;;;;;;;18.40;8.23;;;-2.10;99.90;;;-3.13;83.14;98375.06;5020225;28;20034;-83
2022/03/01 07:07:49;;;;;;;18.63;8.30;;;-2.00;99.90;;;-3.19;83.00;98345.63;4996547;28;20061;-84
2022/03/01 07:10:16;;;;;;;17.15;8.27;;;-1.90;99.90;;;-3.05;82.97;98369.28;5021107;28;20036;-85
2022/03/01 07:12:44;;;;;;;16.13;7.82;;;-1.90;99.90;;;-3.07;82.89;98351.16;4999799;28;20119;-84
2022/03/01 07:15:11;;;;;;;16.45;8.13;;;-1.80;99.90;;;-2.89;82.72;98380.16;4991685;28;20045;-83
2022/03/01 07:17:37;;;;;;;15.40;7.68;;;-1.80;99.90;;;-2.73;82.15;98393.53;4975754;28;20052;-83
2022/03/01 07:20:04;;;;;;;14.07;7.88;;;-1.70;99.90;;;-2.74;81.35;98379.75;5005523;28;20025;-83
2022/03/01 07:22:31;;;;;;;16.83;8.35;;;-1.70;99.90;;;-2.70;80.63;98381.59;4989841;28;20042;-84
2022/03/01 07:24:57;;;;;;;19.10;9.32;;;-1.50;99.90;;;-2.55;78.30;98380.31;4995808;28;20040;-83
2022/03/01 07:27:22;;;;;;;14.63;8.18;;;-1.40;99.90;;;-2.61;77.12;98351.72;4996255;28;20037;-83
2022/03/01 07:29:48;;;;;;;17.20;8.48;;;-1.30;99.90;;;-2.25;76.45;98395.00;4996662;28;20084;-84
2022/03/01 07:32:14;;;;;;;18.60;8.70;;;-1.20;99.90;;;-2.25;76.35;98380.38;5010613;28;20045;-83
2022/03/01 07:34:41;;;;;;;18.85;9.23;;;-1.10;99.90;;;-2.31;75.87;98355.22;5017365;28;20037;-83
2022/03/01 07:37:07;;;;;;;21.00;9.35;;;-1.10;99.90;;;-1.96;73.37;98394.13;4977997;28;20030;-84
2022/03/01 07:39:33;;;;;;;21.27;9.07;;;-0.90;99.90;;;-1.97;73.29;98383.75;5007144;28;20026;-84
2022/03/01 07:41:58;;;;;;;21.05;9.00;;;-0.90;99.90;;;-1.76;71.10;98399.88;4978656;28;20029;-83
2022/03/01 07:44:24;;;;;;;14.18;7.32;;;-0.70;99.90;;;-1.75;70.95;98404.19;5010775;28;20033;-83
2022/03/01 07:46:50;;;;;;;15.45;8.15;;;-0.70;99.90;;;-1.82;70.87;98389.34;5025966;28;20037;-83
2022/03/01 07:49:16;;;;;;;15.73;7.82;;;-0.70;99.90;;;-1.58;69.65;98419.31;4994683;28;20045;-83
2022/03/01 07:51:41;;;;;;;16.65;7.95;;;-0.60;99.90;;;-1.64;69.05;98403.63;5012605;28;20057;-83
2022/03/01 07:54:07;;;;;;;15.43;7.40;;;-0.60;99.90;;;-1.43;68.44;98416.28;4998081;28;20037;-83
2022/03/01 07:56:33;;;;;;;15.98;7.75;;;-0.50;99.90;;;-1.60;67.91;98387.34;5016556;28;20108;-83
2022/03/01 07:58:59;;;;;;;17.45;8.57;;;-0.40;99.90;;;-1.26;66.71;98416.72;5016296;28;20025;-83
2022/03/01 08:01:24;;;;;;;18.83;8.35;;;-0.30;99.90;;;-1.29;66.01;98406.28;5016166;28;20029;-83
2022/03/01 08:03:50;;;;;;;17.45;8.30;;;-0.30;99.90;;;-1.12;65.25;98409.31;4999522;28;20026;-83
2022/03/01 08:06:17;;;;;;;15.18;7.70;;;-0.20;99.90;;;-1.13;64.49;98395.50;5017526;28;20051;-83
2022/03/01 08:08:43;;;;;;;18.05;8.30;;;-0.10;99.90;;;-0.91;62.73;98396.91;5014227;28;20463;-83
2022/03/01 08:11:10;;;;;;;16.80;8.30;;;0.00;99.90;;;-0.98;63.44;98395.88;5005840;28;20033;-83
2022/03/01 08:13:36;;;;;;;13.50;7.43;;;0.10;99.90;;;-0.86;62.43;98405.66;4995514;28;20037;-84
2022/03/01 08:16:04;;;;;;;17.15;8.13;;;0.10;99.90;;;-1.02;63.11;98365.56;5005409;28;20029;-83
2022/03/01 08:18:30;;;;;;;15.07;8.27;;;0.10;99.90;;;-0.84;62.73;98390.16;4984785;28;20052;-84
2022/03/01 08:20:58;;;;;;;14.07;7.68;;;0.20;99.90;;;-0.92;61.49;98365.78;4987817;28;20570;-83
2022/03/01 08:23:25;;;;;;;21.15;8.02;;;0.20;99.90;;;-0.84;61.30;98383.25;5007681;28;20025;-83
2022/03/01 08:25:51;;;;;;;18.17;8.60;;;0.20;99.90;;;-0.86;60.96;98377.16;4996723;28;20030;-84
2022/03/01 08:28:17;;;;;;;15.48;7.75;;;0.20;99.90;;;-0.65;60.52;98381.97;5014819;28;20428;-83
2022/03/01 08:30:42;;;;;;;12.68;7.10;;;0.30;99.90;;;-0.77;60.46;98351.47;4999139;28;20021;-83
2022/03/01 08:33:08;;;;;;;15.70;8.52;;;0.40;99.90;;;-0.37;60.75;98384.31;4996733;28;20046;-84
2022/03/01 08:35:34;;;;;;;15.05;7.10;;;0.50;99.90;;;-0.29;60.07;98390.53;4999126;28;20061;-83
2022/03/01 08:38:05;;;;;;;18.73;8.20;;;0.60;99.90;;;-0.25;58.97;98376.78;5013929;28;20037;-83
2022/03/01 08:40:38;;;;;;;19.42;8.30;;;0.70;99.90;;;-0.43;58.71;98359.13;5013499;28;20455;-83
2022/03/01 08:43:06;;;;;;;17.90;8.23;;;0.70;99.90;;;-0.15;58.33;98381.34;4997555;28;20523;-83
2022/03/01 08:45:32;;;;;;;15.70;7.18;;;0.80;99.90;;;-0.16;58.68;98370.94;5010287;28;20033;-83
2022/03/01 08:47:58;;;;;;;13.90;7.35;;;0.80;99.90;;;-0.10;58.15;98371.94;5007050;28;20061;-84
2022/03/01 08:50:24;;;;;;;13.48;7.32;;;0.90;99.90;;;0.09;58.33;98382.69;4994694;28;20326;-83
2022/03/01 08:52:50;;;;;;;16.25;7.82;;;1.00;99.90;;;-0.01;57.31;98353.09;4994512;28;20422;-83
2022/03/01 08:55:17;;;;;;;14.55;7.55;;;1.10;99.50;;;0.15;56.14;98362.06;5006881;28;20099;-83
2022/03/01 08:57:42;;;;;;;15.90;7.35;;;1.20;98.90;;;0.29;54.48;98368.41;4986947;28;20029;-83
2022/03/01 09:00:12;;;;;;;14.02;7.15;;;1.30;97.90;;;0.48;54.35;98364.41;4985939;28;20045;-88
2022/03/01 09:02:38;;;;;;;11.63;6.53;;;1.40;97.70;;;0.51;54.50;98376.59;4984354;28;20022;-88
2022/03/01 09:05:08;;;;;;;14.77;7.40;;;1.40;97.60;;;0.56;54.29;98365.44;4990568;28;20045;-83
2022/03/01 09:07:34;;;;;;;17.42;7.82;;;1.50;97.40;;;0.73;53.92;98376.13;4973470;28;20564;-86
2022/03/01 09:10:02;;;;;;;12.77;7.25;;;1.60;97.20;;;0.88;53.48;98375.53;4990114;28;20065;-85
2022/03/01 09:12:28;;;;;;;14.95;7.75;;;1.70;96.80;;;0.80;52.73;98345.94;4989792;28;20038;-82
2022/03/01 09:14:53;;;;;;;14.88;7.32;;;1.80;96.30;;;0.82;52.10;98356.38;5013517;28;20065;-84
2022/03/01 09:17:20;;;;;;;13.63;7.47;;;1.80;95.80;;;0.72;52.00;98316.41;4996730;28;20022;-83
2022/03/01 09:19:46;;;;;;;16.67;6.97;;;1.90;95.70;;;1.04;51.44;98360.19;5010231;28;20439;-84
2022/03/01 09:22:12;;;;;;;17.50;6.88;;;1.90;95.40;;;0.98;51.76;98329.78;4994965;28;20058;-82
2022/03/01 09:24:39;;;;;;;14.20;7.53;;;2.00;95.40;;;0.99;50.74;98325.47;5007460;28;20069;-84
2022/03/01 09:27:06;;;;;;;13.15;6.95;;;2.00;94.60;;;1.15;50.35;98348.25;4992524;28;20443;-82
2022/03/01 09:29:33;;;;;;;14.55;6.47;;;2.00;94.50;;;1.03;50.57;98330.75;4993493;28;20306;-81
2022/03/01 09:32:00;;;;;;;13.98;7.07;;;2.10;94.30;;;1.22;50.76;98357.91;5009368;28;20042;-86
2022/03/01 09:34:26;;;;;;;13.18;6.70;;;2.10;94.30;;;0.97;50.23;98311.59;5012155;28;20034;-82
2022/03/01 09:36:53;;;;;;;13.50;7.05;;;2.10;94.20;;;1.31;50.63;98360.66;4994354;28;20108;-83
2022/03/01 09:39:18;;;;;;;12.80;7.00;;;2.20;94.40;;;1.23;51.21;98325.84;5012460;28;20022;-82
2022/03/01 09:41:44;;;;;;;16.23;6.93;;;2.20;94.50;;;1.52;49.54;98361.78;4995544;28;20576;-82
2022/03/01 09:44:10;;;;;;;15.80;7.20;;;2.30;93.40;;;1.46;49.78;98349.59;5014989;28;20044;-83
2022/03/01 09:46:38;;;;;;;12.82;7.05;;;2.30;93.20;;;1.41;49.98;98334.78;5014171;28;20026;-84
2022/03/01 09:49:06;;;;;;;11.85;6.28;;;2.40;93.30;;;1.52;48.99;98335.78;4996882;28;20060;-82
2022/03/01 09:51:36;;;;;;;15.32;7.07;;;2.40;92.90;;;1.64;49.35;98348.09;5014713;28;20495;-82
2022/03/01 09:54:03;;;;;;;12.52;6.53;;;2.50;92.90;;;1.64;49.08;98342.91;4997138;28;20026;-83
2022/03/01 09:56:29;;;;;;;15.10;7.30;;;2.50;92.60;;;1.73;48.38;98318.75;4994736;28;20036;-83
2022/03/01 09:58:55;;;;;;;10.75;6.03;;;2.60;92.40;;;1.75;48.47;98327.44;4995175;28;20246;-83
2022/03/01 10:01:22;;;;;;;13.05;6.85;;;2.60;92.10;;;1.87;47.62;98344.06;5029181;28;20013;-87
2022/03/01 10:03:49;;;;;;;13.10;6.75;;;2.70;91.70;;;1.93;47.16;98332.00;5023238;28;20052;-85
2022/03/01 10:06:18;;;;;;;14.32;6.80;;;2.70;91.40;;;2.09;46.21;98316.59;5008105;28;20037;-85
2022/03/01 10:08:44;;;;;;;10.77;6.57;;;2.90;90.70;;;2.04;47.01;98320.00;4995593;28;20117;-83
2022/03/01 10:11:11;;;;;;;13.80;6.70;;;2.90;90.80;;;2.09;46.93;98332.19;4999825;28;20034;-82